createdAt,value
2023-03-25T00:00:25.968Z,7.43
2023-03-25T00:02:52.695Z,7.53
2023-03-25T00:05:21.614Z,7.50
2023-03-25T00:07:52.658Z,7.69
2023-03-25T00:10:19.629Z,7.60
2023-03-25T00:12:46.215Z,7.54
2023-03-25T00:15:13.515Z,7.50
2023-03-25T00:17:40.080Z,7.52
2023-03-25T00:20:12.070Z,7.31
2023-03-25T00:22:44.264Z,7.11
2023-03-25T00:25:17.406Z,7.22
2023-03-25T00:27:46.399Z,7.22
2023-03-25T00:30:14.696Z,7.13
2023-03-25T00:32:41.397Z,7.09
2023-03-25T00:35:08.495Z,7.13
2023-03-25T00:37:34.926Z,7.12
2023-03-25T00:40:01.549Z,7.23
2023-03-25T00:42:27.982Z,7.24
2023-03-25T00:44:54.487Z,7.28
2023-03-25T00:47:22.504Z,7.19
2023-03-25T00:49:49.850Z,7.23
2023-03-25T00:52:16.437Z,7.20
2023-03-25T00:54:43.281Z,7.05
2023-03-25T00:57:09.728Z,6.91
2023-03-25T00:59:36.223Z,6.54
2023-03-25T01:02:03.681Z,6.57
2023-03-25T01:04:30.296Z,6.65
2023-03-25T01:06:57.518Z,6.37
2023-03-25T01:09:24.065Z,6.18
2023-03-25T01:11:50.706Z,6.02
2023-03-25T01:14:20.810Z,6.17
2023-03-25T01:16:47.782Z,6.04
2023-03-25T01:19:14.667Z,5.94
2023-03-25T01:21:41.669Z,5.82
2023-03-25T01:24:11.981Z,5.95
2023-03-25T01:26:38.456Z,5.60
2023-03-25T01:29:05.346Z,5.63
2023-03-25T01:31:33.204Z,5.73
2023-03-25T01:33:59.824Z,5.78
2023-03-25T01:36:29.655Z,5.90
2023-03-25T01:39:01.312Z,5.87
2023-03-25T01:41:42.212Z,6.04
2023-03-25T01:44:18.121Z,6.13
2023-03-25T01:46:45.419Z,6.11
2023-03-25T01:49:38.813Z,6.05
2023-03-25T01:52:07.466Z,6.07
2023-03-25T01:54:34.526Z,6.09
2023-03-25T01:57:01.286Z,6.15
2023-03-25T01:59:29.403Z,5.99
2023-03-25T02:02:01.621Z,6.07
2023-03-25T02:05:00.577Z,6.02
2023-03-25T02:07:31.022Z,5.98
2023-03-25T02:10:02.314Z,5.92
2023-03-25T02:12:29.123Z,5.77
2023-03-25T02:14:57.915Z,5.68
2023-03-25T02:17:49.532Z,5.73
2023-03-25T02:20:36.017Z,5.87
2023-03-25T02:23:28.720Z,5.94
2023-03-25T02:26:25.790Z,5.90
2023-03-25T02:29:09.476Z,5.81
2023-03-25T02:32:12.243Z,5.77
2023-03-25T02:35:03.119Z,5.63
2023-03-25T02:37:50.798Z,5.71
2023-03-25T02:40:25.710Z,5.56
2023-03-25T02:43:00.204Z,5.58
2023-03-25T02:45:34.241Z,5.56
2023-03-25T02:48:07.829Z,5.50
2023-03-25T02:50:47.963Z,5.62
2023-03-25T02:53:21.106Z,5.51
2023-03-25T02:55:49.536Z,5.49
2023-03-25T02:58:19.312Z,5.65
2023-03-25T03:00:46.488Z,5.66
2023-03-25T03:03:13.100Z,5.65
2023-03-25T03:05:51.790Z,5.67
2023-03-25T03:08:49.707Z,5.84
2023-03-25T03:11:30.734Z,5.79
2023-03-25T03:14:18.862Z,5.83
2023-03-25T03:17:00.818Z,5.88
2023-03-25T03:19:56.970Z,6.01
2023-03-25T03:22:52.688Z,5.90
2023-03-25T03:25:40.260Z,5.94
2023-03-25T03:28:19.722Z,5.62
2023-03-25T03:30:54.334Z,5.67
2023-03-25T03:33:36.939Z,5.72
2023-03-25T03:36:30.161Z,5.83
2023-03-25T03:39:01.894Z,5.69
2023-03-25T03:41:30.422Z,5.80
2023-03-25T03:44:14.877Z,5.79
2023-03-25T03:46:51.288Z,5.81
2023-03-25T03:49:23.180Z,5.81
2023-03-25T03:51:58.512Z,5.89
2023-03-25T03:54:29.740Z,5.77
2023-03-25T03:57:04.844Z,5.69
2023-03-25T03:59:58.800Z,5.65
2023-03-25T04:02:32.568Z,5.64
2023-03-25T04:05:00.724Z,5.71
2023-03-25T04:07:38.951Z,5.71
2023-03-25T04:10:21.593Z,5.74
2023-03-25T04:12:52.793Z,5.74
2023-03-25T04:15:19.511Z,5.59
2023-03-25T04:17:47.990Z,5.61
2023-03-25T04:20:23.664Z,5.73
2023-03-25T04:22:51.806Z,5.65
2023-03-25T04:25:21.387Z,5.60
2023-03-25T04:27:48.981Z,5.68
2023-03-25T04:30:19.308Z,5.71
2023-03-25T04:32:47.556Z,5.81
2023-03-25T04:35:16.949Z,5.76
2023-03-25T04:37:45.845Z,5.91
2023-03-25T04:40:18.669Z,5.84
2023-03-25T04:42:46.483Z,5.88
2023-03-25T04:45:18.780Z,5.74
2023-03-25T04:47:47.351Z,5.63
2023-03-25T04:50:23.158Z,5.67
2023-03-25T04:52:51.035Z,5.69
2023-03-25T04:55:19.474Z,5.65
2023-03-25T04:57:48.155Z,5.82
2023-03-25T05:00:17.066Z,5.78
2023-03-25T05:02:45.974Z,5.72
2023-03-25T05:05:18.374Z,5.63
2023-03-25T05:07:50.143Z,5.57
2023-03-25T05:10:18.168Z,5.71
2023-03-25T05:12:44.805Z,5.79
2023-03-25T05:15:12.235Z,5.71
2023-03-25T05:17:39.086Z,5.71
2023-03-25T05:20:08.858Z,5.54
2023-03-25T05:22:37.778Z,5.72
2023-03-25T05:25:09.813Z,5.75
2023-03-25T05:27:37.713Z,5.76
2023-03-25T05:30:05.894Z,5.72
2023-03-25T05:32:35.122Z,5.78
2023-03-25T05:35:03.145Z,5.76
2023-03-25T05:37:29.932Z,5.79
2023-03-25T05:39:56.436Z,5.76
2023-03-25T05:42:23.061Z,5.73
2023-03-25T05:44:51.211Z,5.82
2023-03-25T05:47:23.607Z,5.80
2023-03-25T05:49:51.877Z,5.70
2023-03-25T05:52:19.222Z,5.72
2023-03-25T05:54:46.986Z,5.57
2023-03-25T05:57:13.575Z,5.59
2023-03-25T05:59:40.660Z,5.72
2023-03-25T06:02:17.304Z,5.66
2023-03-25T06:04:44.696Z,5.72
2023-03-25T06:07:19.764Z,5.88
2023-03-25T06:09:49.754Z,5.84
2023-03-25T06:12:20.012Z,5.95
2023-03-25T06:14:47.778Z,6.01
2023-03-25T06:17:18.912Z,6.02
2023-03-25T06:19:45.498Z,6.06
2023-03-25T06:22:12.487Z,6.08
2023-03-25T06:24:39.864Z,6.10
2023-03-25T06:27:17.582Z,6.05
2023-03-25T06:29:45.560Z,6.10
2023-03-25T06:32:14.755Z,6.22
2023-03-25T06:34:44.701Z,6.13
2023-03-25T06:37:11.203Z,6.21
2023-03-25T06:39:37.766Z,6.34
2023-03-25T06:42:12.182Z,6.52
2023-03-25T06:44:54.490Z,6.59
2023-03-25T06:47:34.863Z,6.97
2023-03-25T06:50:01.499Z,7.36
2023-03-25T06:52:27.949Z,7.63
2023-03-25T06:54:54.415Z,7.78
2023-03-25T06:57:20.900Z,7.79
2023-03-25T06:59:48.238Z,8.01
2023-03-25T07:02:15.045Z,8.55
2023-03-25T07:04:41.653Z,8.99
2023-03-25T07:07:09.057Z,9.23
2023-03-25T07:09:35.683Z,9.51
2023-03-25T07:12:02.183Z,9.69
2023-03-25T07:14:28.608Z,10.03
2023-03-25T07:16:55.333Z,10.43
2023-03-25T07:19:22.209Z,10.81
2023-03-25T07:21:48.643Z,11.11
2023-03-25T07:24:15.368Z,11.42
2023-03-25T07:26:41.836Z,11.51
2023-03-25T07:29:10.589Z,11.63
2023-03-25T07:31:37.298Z,11.28
2023-03-25T07:34:04.781Z,11.24
2023-03-25T07:36:31.207Z,10.73
2023-03-25T07:38:57.774Z,10.30
2023-03-25T07:41:24.232Z,10.29
2023-03-25T07:44:04.328Z,10.01
2023-03-25T07:46:32.188Z,9.91
2023-03-25T07:48:58.640Z,9.39
2023-03-25T07:51:25.192Z,9.21
2023-03-25T07:53:51.641Z,9.33
2023-03-25T07:56:18.092Z,9.45
2023-03-25T07:58:45.426Z,9.64
2023-03-25T08:01:12.070Z,9.71
2023-03-25T08:03:39.804Z,9.35
2023-03-25T08:06:07.431Z,9.13
2023-03-25T08:08:34.050Z,9.09
2023-03-25T08:11:01.589Z,8.94
2023-03-25T08:13:28.112Z,8.98
2023-03-25T08:15:54.531Z,8.97
2023-03-25T08:18:21.256Z,8.69
2023-03-25T08:20:50.066Z,8.65
2023-03-25T08:23:19.596Z,8.43
2023-03-25T08:25:51.845Z,8.26
2023-03-25T08:28:23.310Z,8.44
2023-03-25T08:30:54.925Z,8.21
2023-03-25T08:33:27.181Z,8.35
2023-03-25T08:35:57.235Z,8.34
2023-03-25T08:38:25.299Z,8.43
2023-03-25T08:40:51.825Z,8.42
2023-03-25T08:43:18.200Z,8.63
2023-03-25T08:45:44.693Z,8.58
2023-03-25T08:48:11.187Z,8.77
2023-03-25T08:50:37.658Z,8.71
2023-03-25T08:53:04.099Z,8.55
2023-03-25T08:55:30.562Z,8.45
2023-03-25T08:57:57.073Z,8.40
2023-03-25T09:00:25.281Z,8.49
2023-03-25T09:02:51.823Z,8.31
2023-03-25T09:05:19.078Z,8.31
2023-03-25T09:07:46.700Z,8.46
2023-03-25T09:10:13.377Z,8.88
2023-03-25T09:12:39.773Z,9.17
2023-03-25T09:15:07.272Z,9.40
2023-03-25T09:17:33.730Z,9.91
2023-03-25T09:20:00.181Z,10.33
2023-03-25T09:22:26.704Z,10.61
2023-03-25T09:24:53.149Z,10.85
2023-03-25T09:27:19.694Z,11.09
2023-03-25T09:29:46.244Z,11.11
2023-03-25T09:32:13.010Z,10.96
2023-03-25T09:34:39.430Z,10.45
2023-03-25T09:37:05.939Z,9.91
2023-03-25T09:39:32.454Z,9.65
2023-03-25T09:42:23.488Z,9.76
2023-03-25T09:45:16.693Z,9.69
2023-03-25T09:47:53.306Z,9.58
2023-03-25T09:50:21.827Z,9.62
2023-03-25T09:52:58.530Z,9.69
2023-03-25T09:55:30.269Z,9.97
2023-03-25T09:58:28.844Z,10.52
2023-03-25T10:01:03.689Z,10.86
2023-03-25T10:03:44.693Z,10.90
2023-03-25T10:06:19.721Z,10.92
2023-03-25T10:09:01.802Z,10.47
2023-03-25T10:11:40.115Z,10.57
2023-03-25T10:14:20.082Z,10.56
2023-03-25T10:16:58.346Z,10.52
2023-03-25T10:20:01.364Z,10.21
2023-03-25T10:22:39.826Z,10.05
2023-03-25T10:25:15.594Z,9.87
2023-03-25T10:27:49.568Z,9.58
2023-03-25T10:30:21.416Z,9.59
2023-03-25T10:33:04.152Z,9.02
2023-03-25T10:35:42.718Z,8.56
2023-03-25T10:38:20.991Z,8.50
2023-03-25T10:40:50.459Z,8.44
2023-03-25T10:43:31.968Z,8.55
2023-03-25T10:46:14.419Z,8.67
2023-03-25T10:48:41.144Z,8.68
2023-03-25T10:51:13.736Z,8.75
2023-03-25T10:53:47.493Z,8.74
2023-03-25T10:56:17.890Z,8.50
2023-03-25T10:58:50.551Z,8.47
2023-03-25T11:01:30.455Z,8.39
2023-03-25T11:03:59.406Z,8.46
2023-03-25T11:06:29.715Z,8.51
2023-03-25T11:08:58.378Z,8.19
2023-03-25T11:11:33.396Z,7.89
2023-03-25T11:13:59.966Z,7.66
2023-03-25T11:16:26.607Z,8.09
2023-03-25T11:18:53.863Z,8.26
2023-03-25T11:21:21.256Z,8.48
2023-03-25T11:23:50.768Z,8.96
2023-03-25T11:26:17.115Z,9.37
2023-03-25T11:28:56.011Z,9.38
2023-03-25T11:31:25.292Z,9.57
2023-03-25T11:34:18.753Z,9.80
2023-03-25T11:37:16.817Z,10.03
2023-03-25T11:39:48.479Z,10.03
2023-03-25T11:42:22.391Z,10.23
2023-03-25T11:44:54.252Z,10.19
2023-03-25T11:47:26.917Z,10.42
2023-03-25T11:49:54.199Z,10.62
2023-03-25T11:52:24.427Z,10.59
2023-03-25T11:54:53.712Z,10.42
2023-03-25T11:57:24.685Z,10.45
2023-03-25T12:00:00.950Z,10.18
2023-03-25T12:02:38.151Z,10.09
2023-03-25T12:05:07.898Z,10.04
2023-03-25T12:07:51.894Z,9.97
2023-03-25T12:10:40.645Z,10.29
2023-03-25T12:13:41.414Z,10.15
2023-03-25T12:16:34.119Z,10.21
2023-03-25T12:19:10.432Z,10.41
2023-03-25T12:22:01.387Z,10.14
2023-03-25T12:25:26.315Z,10.14
2023-03-25T12:27:55.331Z,10.15
2023-03-25T12:30:27.525Z,10.25
2023-03-25T12:33:06.141Z,10.45
2023-03-25T12:35:47.277Z,10.49
2023-03-25T12:38:28.625Z,10.55
2023-03-25T12:41:11.598Z,10.46
2023-03-25T12:44:02.222Z,10.49
2023-03-25T12:46:56.056Z,10.45
2023-03-25T12:49:41.477Z,10.54
2023-03-25T12:52:13.721Z,10.63
2023-03-25T12:54:58.775Z,10.59
2023-03-25T12:57:25.397Z,10.61
2023-03-25T13:00:25.547Z,10.68
2023-03-25T13:03:33.854Z,10.79
2023-03-25T13:06:17.309Z,10.60
2023-03-25T13:08:58.980Z,10.29
2023-03-25T13:11:33.405Z,10.31
2023-03-25T13:14:08.960Z,10.26
2023-03-25T13:16:37.558Z,10.30
2023-03-25T13:19:11.022Z,10.44
2023-03-25T13:21:46.356Z,10.64
2023-03-25T13:24:18.492Z,10.73
2023-03-25T13:26:47.951Z,10.74
2023-03-25T13:29:36.914Z,10.91
2023-03-25T13:32:09.709Z,10.99
2023-03-25T13:34:45.370Z,11.17
2023-03-25T13:37:22.608Z,11.17
2023-03-25T13:40:10.885Z,10.83
2023-03-25T13:42:51.322Z,10.83
2023-03-25T13:45:22.670Z,11.16
2023-03-25T13:48:19.790Z,11.25
2023-03-25T13:50:46.665Z,11.38
2023-03-25T13:53:25.151Z,11.41
2023-03-25T13:56:22.233Z,11.43
2023-03-25T13:59:08.397Z,11.45
2023-03-25T14:01:43.700Z,11.57
2023-03-25T14:04:24.029Z,11.47
2023-03-25T14:07:14.709Z,11.54
2023-03-25T14:09:58.228Z,11.40
2023-03-25T14:12:55.565Z,11.34
2023-03-25T14:15:26.488Z,11.24
2023-03-25T14:17:56.032Z,11.24
2023-03-25T14:20:27.749Z,11.18
2023-03-25T14:22:57.543Z,11.27
2023-03-25T14:25:33.580Z,11.22
2023-03-25T14:28:02.341Z,11.07
2023-03-25T14:30:31.061Z,11.12
2023-03-25T14:32:57.878Z,11.34
2023-03-25T14:35:33.724Z,11.29
2023-03-25T14:38:09.172Z,11.25
2023-03-25T14:40:47.447Z,11.21
2023-03-25T14:43:46.159Z,11.12
2023-03-25T14:46:19.062Z,11.21
2023-03-25T14:48:50.155Z,11.38
2023-03-25T14:51:25.708Z,11.27
2023-03-25T14:54:14.056Z,11.31
2023-03-25T14:57:08.234Z,11.28
2023-03-25T14:59:44.535Z,11.28
2023-03-25T15:02:31.261Z,11.18
2023-03-25T15:05:13.684Z,11.17
2023-03-25T15:07:50.463Z,11.03
2023-03-25T15:10:36.613Z,11.01
2023-03-25T15:13:19.573Z,10.87
2023-03-25T15:15:46.083Z,10.83
2023-03-25T15:18:34.374Z,10.99
2023-03-25T15:21:09.895Z,11.10
2023-03-25T15:23:41.294Z,10.90
2023-03-25T15:26:19.596Z,10.85
2023-03-25T15:29:01.929Z,10.85
2023-03-25T15:31:41.167Z,10.81
2023-03-25T15:34:22.970Z,11.00
2023-03-25T15:37:33.164Z,10.83
2023-03-25T15:40:17.514Z,10.95
2023-03-25T15:42:59.192Z,11.06
2023-03-25T15:45:57.041Z,11.01
2023-03-25T15:49:01.351Z,10.94
2023-03-25T15:51:33.682Z,10.90
2023-03-25T15:54:16.473Z,10.99
2023-03-25T15:56:46.921Z,11.01
2023-03-25T15:59:30.059Z,11.11
2023-03-25T16:01:59.865Z,11.01
2023-03-25T16:04:42.322Z,10.95
2023-03-25T16:07:13.020Z,10.99
2023-03-25T16:09:44.605Z,10.71
2023-03-25T16:12:11.212Z,10.86
2023-03-25T16:14:39.538Z,10.81
2023-03-25T16:17:08.740Z,10.71
2023-03-25T16:19:41.521Z,10.76
2023-03-25T16:22:37.389Z,10.67
2023-03-25T16:25:14.563Z,10.81
2023-03-25T16:27:47.138Z,10.70
2023-03-25T16:30:28.932Z,10.31
2023-03-25T16:33:07.871Z,10.44
2023-03-25T16:35:37.155Z,10.37
2023-03-25T16:38:04.735Z,10.06
2023-03-25T16:40:36.161Z,10.02
2023-03-25T16:43:06.512Z,10.05
2023-03-25T16:45:34.252Z,10.11
2023-03-25T16:48:07.566Z,10.00
2023-03-25T16:50:35.353Z,9.97
2023-03-25T16:53:02.946Z,9.84
2023-03-25T16:55:47.420Z,9.83
2023-03-25T16:58:18.230Z,9.72
2023-03-25T17:00:48.252Z,9.76
2023-03-25T17:03:21.200Z,9.67
2023-03-25T17:06:01.425Z,9.53
2023-03-25T17:08:28.361Z,9.64
2023-03-25T17:10:57.046Z,9.55
2023-03-25T17:13:29.578Z,9.53
2023-03-25T17:15:56.711Z,9.54
2023-03-25T17:18:29.222Z,9.53
2023-03-25T17:21:00.053Z,9.54
2023-03-25T17:23:42.443Z,9.58
2023-03-25T17:26:11.548Z,9.56
2023-03-25T17:28:43.203Z,9.45
2023-03-25T17:31:29.544Z,9.19
2023-03-25T17:34:08.252Z,8.87
2023-03-25T17:36:37.784Z,8.56
2023-03-25T17:39:13.118Z,8.27
2023-03-25T17:41:40.177Z,8.20
2023-03-25T17:44:07.358Z,8.21
2023-03-25T17:46:35.160Z,8.16
2023-03-25T17:49:01.741Z,8.15
2023-03-25T17:51:30.314Z,8.13
2023-03-25T17:53:57.434Z,8.11
2023-03-25T17:56:27.471Z,8.10
2023-03-25T17:59:05.722Z,8.14
2023-03-25T18:01:32.535Z,8.10
2023-03-25T18:03:59.023Z,8.10
2023-03-25T18:06:25.878Z,8.06
2023-03-25T18:08:52.954Z,8.08
2023-03-25T18:11:19.837Z,8.11
2023-03-25T18:13:48.242Z,8.02
2023-03-25T18:16:16.983Z,8.04
2023-03-25T18:18:43.895Z,7.82
2023-03-25T18:21:15.647Z,7.89
2023-03-25T18:23:47.366Z,7.91
2023-03-25T18:26:16.770Z,7.88
2023-03-25T18:28:43.658Z,7.87
2023-03-25T18:31:17.140Z,7.86
2023-03-25T18:33:48.314Z,7.78
2023-03-25T18:36:15.200Z,7.70
2023-03-25T18:38:43.375Z,7.75
2023-03-25T18:41:17.275Z,7.75
2023-03-25T18:43:44.351Z,7.63
2023-03-25T18:46:15.007Z,7.63
2023-03-25T18:48:42.315Z,7.62
2023-03-25T18:51:13.667Z,7.56
2023-03-25T18:53:40.853Z,7.55
2023-03-25T18:56:07.904Z,7.58
2023-03-25T18:58:35.941Z,7.53
2023-03-25T19:01:04.003Z,7.56
2023-03-25T19:03:31.199Z,7.53
2023-03-25T19:05:59.258Z,7.60
2023-03-25T19:08:26.732Z,7.47
2023-03-25T19:10:55.888Z,7.47
2023-03-25T19:13:28.785Z,7.47
2023-03-25T19:15:55.217Z,7.53
2023-03-25T19:18:27.707Z,7.45
2023-03-25T19:20:55.308Z,7.35
2023-03-25T19:23:22.188Z,7.29
2023-03-25T19:25:50.888Z,7.33
2023-03-25T19:28:20.330Z,7.28
2023-03-25T19:30:49.007Z,7.30
2023-03-25T19:33:15.888Z,7.34
2023-03-25T19:35:49.570Z,7.23
2023-03-25T19:38:18.809Z,7.30
2023-03-25T19:40:46.510Z,7.32
2023-03-25T19:43:13.503Z,7.29
2023-03-25T19:45:39.903Z,7.18
2023-03-25T19:48:06.498Z,7.19
2023-03-25T19:50:34.424Z,7.22
2023-03-25T19:53:03.295Z,7.13
2023-03-25T19:55:29.917Z,7.28
2023-03-25T19:57:56.675Z,7.30
2023-03-25T20:00:26.500Z,7.31
2023-03-25T20:02:58.747Z,7.19
2023-03-25T20:05:25.643Z,7.12
2023-03-25T20:07:52.178Z,7.05
2023-03-25T20:10:21.293Z,6.96
2023-03-25T20:12:49.374Z,7.01
2023-03-25T20:15:17.676Z,6.93
2023-03-25T20:17:44.278Z,7.05
2023-03-25T20:20:12.919Z,7.07
2023-03-25T20:22:40.378Z,7.07
2023-03-25T20:25:09.090Z,7.09
2023-03-25T20:27:36.156Z,7.10
2023-03-25T20:30:03.947Z,7.06
2023-03-25T20:32:39.923Z,7.03
2023-03-25T20:35:10.271Z,7.02
2023-03-25T20:37:38.587Z,6.87
2023-03-25T20:40:11.210Z,7.03
2023-03-25T20:42:39.985Z,7.04
2023-03-25T20:45:07.445Z,7.00
2023-03-25T20:47:34.357Z,7.00
2023-03-25T20:50:00.872Z,6.96
2023-03-25T20:52:28.770Z,6.96
2023-03-25T20:54:55.266Z,6.91
2023-03-25T20:57:22.079Z,6.96
2023-03-25T20:59:48.788Z,6.99
2023-03-25T21:02:16.882Z,6.92
2023-03-25T21:04:43.560Z,7.02
2023-03-25T21:07:10.261Z,6.92
2023-03-25T21:09:37.271Z,7.02
2023-03-25T21:12:03.988Z,7.00
2023-03-25T21:14:30.596Z,6.93
2023-03-25T21:16:57.741Z,6.91
2023-03-25T21:19:24.258Z,6.99
2023-03-25T21:21:50.690Z,6.84
2023-03-25T21:24:21.371Z,6.80
2023-03-25T21:26:50.657Z,6.88
2023-03-25T21:29:18.798Z,6.91
2023-03-25T21:31:45.466Z,6.92
2023-03-25T21:34:15.595Z,7.02
2023-03-25T21:36:43.073Z,6.99
2023-03-25T21:39:09.755Z,7.07
2023-03-25T21:41:36.527Z,7.03
2023-03-25T21:44:03.250Z,7.08
2023-03-25T21:46:29.761Z,7.00
2023-03-25T21:48:58.471Z,7.06
2023-03-25T21:51:26.526Z,6.96
2023-03-25T21:53:53.241Z,6.95
2023-03-25T21:56:24.957Z,6.91
2023-03-25T21:58:51.928Z,6.98
2023-03-25T22:01:28.313Z,7.00
2023-03-25T22:03:59.993Z,6.89
2023-03-25T22:06:30.091Z,6.86
2023-03-25T22:08:57.393Z,6.83
2023-03-25T22:11:26.163Z,6.85
2023-03-25T22:13:52.657Z,6.80
2023-03-25T22:16:20.676Z,6.83
2023-03-25T22:18:48.280Z,6.86
2023-03-25T22:21:22.619Z,6.91
2023-03-25T22:23:52.111Z,6.85
2023-03-25T22:26:18.587Z,6.77
2023-03-25T22:28:45.281Z,6.80
2023-03-25T22:31:14.137Z,6.73
2023-03-25T22:33:41.480Z,6.83
2023-03-25T22:36:14.175Z,6.82
2023-03-25T22:38:44.048Z,6.77
2023-03-25T22:41:12.684Z,6.75
2023-03-25T22:43:39.220Z,6.70
2023-03-25T22:46:07.254Z,6.76
2023-03-25T22:48:36.033Z,6.82
2023-03-25T22:51:02.558Z,6.77
2023-03-25T22:53:29.002Z,6.76
2023-03-25T22:55:57.256Z,6.81
2023-03-25T22:58:28.304Z,6.87
2023-03-25T23:00:55.675Z,6.87
2023-03-25T23:03:24.057Z,6.82
2023-03-25T23:05:59.388Z,6.86
2023-03-25T23:08:29.796Z,6.88
2023-03-25T23:10:58.776Z,6.81
2023-03-25T23:13:27.282Z,6.88
2023-03-25T23:16:04.452Z,6.95
2023-03-25T23:18:31.486Z,6.95
2023-03-25T23:20:59.512Z,6.91
2023-03-25T23:23:26.792Z,6.95
2023-03-25T23:26:04.126Z,6.97
2023-03-25T23:28:34.256Z,6.94
2023-03-25T23:31:01.863Z,6.95
2023-03-25T23:33:29.083Z,7.02
2023-03-25T23:36:00.626Z,6.96
2023-03-25T23:38:27.714Z,6.90
2023-03-25T23:41:06.674Z,6.90
2023-03-25T23:43:33.792Z,6.86
2023-03-25T23:46:00.605Z,6.87
2023-03-25T23:48:27.803Z,6.84
2023-03-25T23:50:56.559Z,6.75
2023-03-25T23:53:24.554Z,6.75
2023-03-25T23:55:53.337Z,6.77
2023-03-25T23:58:21.663Z,6.71
